createdAt,value
2022-12-06T00:00:32.456Z,99.99
2022-12-06T00:01:33.400Z,99.99
2022-12-06T00:02:33.611Z,99.99
2022-12-06T00:03:34.300Z,99.99
2022-12-06T00:04:34.295Z,99.99
2022-12-06T00:05:35.244Z,99.99
2022-12-06T00:06:35.731Z,99.99
2022-12-06T00:07:36.414Z,99.99
2022-12-06T00:08:36.857Z,99.99
2022-12-06T00:09:37.049Z,99.99
2022-12-06T00:10:37.562Z,99.99
2022-12-06T00:11:38.483Z,99.99
2022-12-06T00:12:39.390Z,99.99
2022-12-06T00:13:39.881Z,99.99
2022-12-06T00:14:40.034Z,99.99
2022-12-06T00:15:40.544Z,99.99
2022-12-06T00:16:41.269Z,99.99
2022-12-06T00:17:47.953Z,99.99
2022-12-06T00:18:42.296Z,99.99
2022-12-06T00:19:43.205Z,99.99
2022-12-06T00:20:44.112Z,99.99
2022-12-06T00:21:44.033Z,99.99
2022-12-06T00:22:44.938Z,99.99
2022-12-06T00:23:45.127Z,99.99
2022-12-06T00:24:45.260Z,99.99
2022-12-06T00:25:46.522Z,99.99
2022-12-06T00:26:47.470Z,99.99
2022-12-06T00:27:47.957Z,99.99
2022-12-06T00:28:48.569Z,99.99
2022-12-06T00:29:48.877Z,99.99
2022-12-06T00:30:50.103Z,99.99
2022-12-06T00:31:50.664Z,99.99
2022-12-06T00:32:50.618Z,99.99
2022-12-06T00:33:50.982Z,99.99
2022-12-06T00:34:51.114Z,99.99
2022-12-06T00:35:52.017Z,99.99
2022-12-06T00:36:52.363Z,99.99
2022-12-06T00:37:52.702Z,99.99
2022-12-06T00:38:53.336Z,99.99
2022-12-06T00:39:53.823Z,99.99
2022-12-06T00:40:54.813Z,99.99
2022-12-06T00:41:55.290Z,99.99
2022-12-06T00:42:55.923Z,99.99
2022-12-06T00:43:57.134Z,99.99
2022-12-06T00:44:57.853Z,99.99
2022-12-06T00:45:58.330Z,99.99
2022-12-06T00:46:58.586Z,99.99
2022-12-06T00:47:59.483Z,99.99
2022-12-06T00:48:59.699Z,99.99
2022-12-06T00:50:00.482Z,99.99
2022-12-06T00:51:00.640Z,99.99
2022-12-06T00:52:01.554Z,99.99
2022-12-06T00:53:02.161Z,99.99
2022-12-06T00:54:02.765Z,99.99
2022-12-06T00:55:03.764Z,99.99
2022-12-06T00:56:04.377Z,99.99
2022-12-06T00:57:04.866Z,99.99
2022-12-06T00:58:05.069Z,99.99
2022-12-06T00:59:05.969Z,99.99
2022-12-06T01:00:06.871Z,99.99
2022-12-06T01:01:06.977Z,99.99
2022-12-06T01:02:07.458Z,99.99
2022-12-06T01:03:08.223Z,99.99
2022-12-06T01:04:08.351Z,99.99
2022-12-06T01:05:09.033Z,99.99
2022-12-06T01:06:09.963Z,99.99
2022-12-06T01:07:09.871Z,99.99
2022-12-06T01:08:11.232Z,99.99
2022-12-06T01:09:11.722Z,99.99
2022-12-06T01:10:12.336Z,99.99
2022-12-06T01:11:13.232Z,99.99
2022-12-06T01:12:14.141Z,99.99
2022-12-06T01:13:14.054Z,99.99
2022-12-06T01:14:14.940Z,99.99
2022-12-06T01:15:15.946Z,99.99
2022-12-06T01:16:16.696Z,99.99
2022-12-06T01:17:16.697Z,99.99
2022-12-06T01:18:16.587Z,99.99
2022-12-06T01:19:17.849Z,99.99
2022-12-06T01:20:18.054Z,99.99
2022-12-06T01:21:18.555Z,99.99
2022-12-06T01:22:19.478Z,99.99
2022-12-06T01:23:19.666Z,99.99
2022-12-06T01:24:19.579Z,99.99
2022-12-06T01:25:21.196Z,99.99
2022-12-06T01:26:20.452Z,99.99
2022-12-06T01:27:20.932Z,99.99
2022-12-06T01:28:21.567Z,99.99
2022-12-06T01:29:22.478Z,99.99
2022-12-06T01:30:22.705Z,99.99
2022-12-06T01:31:23.543Z,99.99
2022-12-06T01:32:24.074Z,99.99
2022-12-06T01:33:24.965Z,99.99
2022-12-06T01:34:25.882Z,99.99
2022-12-06T01:35:27.169Z,99.99
2022-12-06T01:36:27.664Z,99.99
2022-12-06T01:37:28.168Z,99.99
2022-12-06T01:38:28.486Z,99.99
2022-12-06T01:39:29.417Z,99.99
2022-12-06T01:40:29.612Z,99.99
2022-12-06T01:41:30.533Z,99.99
2022-12-06T01:42:31.160Z,99.99
2022-12-06T01:43:31.795Z,99.99
2022-12-06T01:44:32.991Z,99.99
2022-12-06T01:45:33.946Z,99.99
2022-12-06T01:46:34.182Z,99.99
2022-12-06T01:47:35.385Z,99.99
2022-12-06T01:48:35.424Z,99.99
2022-12-06T01:49:36.636Z,99.99
2022-12-06T01:50:37.509Z,99.99
2022-12-06T01:51:37.738Z,99.99
2022-12-06T01:52:37.933Z,99.99
2022-12-06T01:53:38.419Z,99.99
2022-12-06T01:54:38.623Z,99.99
2022-12-06T01:55:39.339Z,99.99
2022-12-06T01:56:40.243Z,99.99
2022-12-06T01:57:40.429Z,99.99
2022-12-06T01:58:41.403Z,99.99
2022-12-06T01:59:42.290Z,99.99
2022-12-06T02:00:42.204Z,99.99
2022-12-06T02:01:42.648Z,99.99
2022-12-06T02:02:43.412Z,99.99
2022-12-06T02:03:43.487Z,99.99
2022-12-06T02:04:44.426Z,99.99
2022-12-06T02:05:46.575Z,99.99
2022-12-06T02:06:45.075Z,99.99
2022-12-06T02:07:45.074Z,99.99
2022-12-06T02:08:45.588Z,99.99
2022-12-06T02:09:45.775Z,99.99
2022-12-06T02:10:46.800Z,99.99
2022-12-06T02:11:46.715Z,99.99
2022-12-06T02:12:47.915Z,99.99
2022-12-06T02:13:48.539Z,99.99
2022-12-06T02:14:49.167Z,99.99
2022-12-06T02:15:50.186Z,99.99
2022-12-06T02:16:50.937Z,99.99
2022-12-06T02:17:51.108Z,99.99
2022-12-06T02:18:50.995Z,99.99
2022-12-06T02:19:51.352Z,99.99
2022-12-06T02:20:52.115Z,99.99
2022-12-06T02:21:52.616Z,99.99
2022-12-06T02:22:52.824Z,99.99
2022-12-06T02:23:52.715Z,99.99
2022-12-06T02:24:53.206Z,99.99
2022-12-06T02:25:54.100Z,99.99
2022-12-06T02:26:54.550Z,99.99
2022-12-06T02:27:54.859Z,99.99
2022-12-06T02:28:55.791Z,99.99
2022-12-06T02:29:56.764Z,99.99
2022-12-06T02:30:57.727Z,99.99
2022-12-06T02:31:57.689Z,99.99
2022-12-06T02:33:00.564Z,99.99
2022-12-06T02:33:58.885Z,99.99
2022-12-06T02:35:00.111Z,99.99
2022-12-06T02:36:00.684Z,99.99
2022-12-06T02:37:01.313Z,99.99
2022-12-06T02:38:01.517Z,99.99
2022-12-06T02:39:01.770Z,99.99
2022-12-06T02:40:02.903Z,99.99
2022-12-06T02:41:02.892Z,99.99
2022-12-06T02:42:03.800Z,99.99
2022-12-06T02:43:04.695Z,99.99
2022-12-06T02:44:05.612Z,99.99
2022-12-06T02:45:06.240Z,99.99
2022-12-06T02:46:06.826Z,99.99
2022-12-06T02:47:07.260Z,99.99
2022-12-06T02:48:07.458Z,99.99
2022-12-06T02:49:08.073Z,99.99
2022-12-06T02:50:08.724Z,99.99
2022-12-06T02:51:09.198Z,99.99
2022-12-06T02:52:10.154Z,99.99
2022-12-06T02:53:11.088Z,99.99
2022-12-06T02:54:11.722Z,99.99
2022-12-06T02:55:11.612Z,99.99
2022-12-06T02:56:12.923Z,99.99
2022-12-06T02:57:13.114Z,99.99
2022-12-06T02:58:13.721Z,99.99
2022-12-06T02:59:14.329Z,99.99
2022-12-06T03:00:14.957Z,99.99
2022-12-06T03:01:15.946Z,99.99
2022-12-06T03:02:16.934Z,99.99
2022-12-06T03:03:17.739Z,99.99
2022-12-06T03:04:18.324Z,99.99
2022-12-06T03:05:18.686Z,99.99
2022-12-06T03:06:19.377Z,99.99
2022-12-06T03:07:20.015Z,99.99
2022-12-06T03:08:21.150Z,99.99
2022-12-06T03:09:21.164Z,99.99
2022-12-06T03:10:21.648Z,99.99
2022-12-06T03:11:22.132Z,99.99
2022-12-06T03:12:22.459Z,99.99
2022-12-06T03:13:23.395Z,99.99
2022-12-06T03:14:24.021Z,99.99
2022-12-06T03:15:24.715Z,99.99
2022-12-06T03:16:25.727Z,99.99
2022-12-06T03:17:26.255Z,99.99
2022-12-06T03:18:26.137Z,99.99
2022-12-06T03:19:27.061Z,99.99
2022-12-06T03:20:28.000Z,99.99
2022-12-06T03:21:28.881Z,99.99
2022-12-06T03:22:29.132Z,99.99
2022-12-06T03:23:29.736Z,99.99
2022-12-06T03:24:30.365Z,99.99
2022-12-06T03:25:30.702Z,99.99
2022-12-06T03:26:31.387Z,99.99
2022-12-06T03:27:32.274Z,99.99
2022-12-06T03:28:32.934Z,99.99
2022-12-06T03:29:33.546Z,99.99
2022-12-06T03:30:34.448Z,99.99
2022-12-06T03:31:35.661Z,99.99
2022-12-06T03:32:36.043Z,99.99
2022-12-06T03:33:36.234Z,99.99
2022-12-06T03:34:37.129Z,99.99
2022-12-06T03:35:38.068Z,99.99
2022-12-06T03:36:38.642Z,99.99
2022-12-06T03:37:38.859Z,99.99
2022-12-06T03:38:39.787Z,99.99
2022-12-06T03:39:39.701Z,99.99
2022-12-06T03:40:40.348Z,99.99
2022-12-06T03:41:41.252Z,99.99
2022-12-06T03:42:41.136Z,99.99
2022-12-06T03:43:42.341Z,99.99
2022-12-06T03:44:42.266Z,99.99
2022-12-06T03:45:43.336Z,99.99
2022-12-06T03:46:43.380Z,99.99
2022-12-06T03:47:44.117Z,99.99
2022-12-06T03:48:45.010Z,99.99
2022-12-06T03:49:45.609Z,99.99
2022-12-06T03:50:46.081Z,99.99
2022-12-06T03:51:46.541Z,99.99
2022-12-06T03:52:47.054Z,99.99
2022-12-06T03:53:47.275Z,99.99
2022-12-06T03:54:47.168Z,99.99
2022-12-06T03:55:48.500Z,99.99
2022-12-06T03:56:49.511Z,99.99
2022-12-06T03:57:50.099Z,99.99
2022-12-06T03:58:51.308Z,99.99
2022-12-06T03:59:52.232Z,99.99
2022-12-06T04:00:52.389Z,99.99
2022-12-06T04:01:53.487Z,99.99
2022-12-06T04:02:53.487Z,99.99
2022-12-06T04:03:54.521Z,99.99
2022-12-06T04:04:54.958Z,99.99
2022-12-06T04:05:55.596Z,99.99
2022-12-06T04:06:56.614Z,99.99
2022-12-06T04:07:57.449Z,99.99
2022-12-06T04:08:57.951Z,99.99
2022-12-06T04:09:58.864Z,99.99
2022-12-06T04:10:59.507Z,99.99
2022-12-06T04:11:59.422Z,99.99
2022-12-06T04:13:00.032Z,99.99
2022-12-06T04:14:00.941Z,99.99
2022-12-06T04:15:01.265Z,99.99
2022-12-06T04:16:02.569Z,99.99
2022-12-06T04:17:02.562Z,99.99
2022-12-06T04:18:03.468Z,99.99
2022-12-06T04:19:04.738Z,99.99
2022-12-06T04:20:06.451Z,99.99
2022-12-06T04:21:05.961Z,99.99
2022-12-06T04:22:06.162Z,99.99
2022-12-06T04:23:07.105Z,99.99
2022-12-06T04:24:07.046Z,99.99
2022-12-06T04:25:07.937Z,99.99
2022-12-06T04:26:08.832Z,99.99
2022-12-06T04:27:09.831Z,99.99
2022-12-06T04:28:10.136Z,99.99
2022-12-06T04:29:10.744Z,99.99
2022-12-06T04:30:11.082Z,99.99
2022-12-06T04:31:14.767Z,99.99
2022-12-06T04:32:12.446Z,99.99
2022-12-06T04:33:12.688Z,99.99
2022-12-06T04:34:12.911Z,99.99
2022-12-06T04:35:13.544Z,99.99
2022-12-06T04:36:14.489Z,99.99
2022-12-06T04:37:15.075Z,99.99
2022-12-06T04:38:15.569Z,99.99
2022-12-06T04:39:19.313Z,99.99
2022-12-06T04:40:17.015Z,99.99
2022-12-06T04:41:16.980Z,99.99
2022-12-06T04:42:18.156Z,99.99
2022-12-06T04:43:18.078Z,99.99
2022-12-06T04:44:18.561Z,99.99
2022-12-06T04:45:18.914Z,99.99
2022-12-06T04:46:19.930Z,99.99
2022-12-06T04:47:20.016Z,99.99
2022-12-06T04:48:20.522Z,99.99
2022-12-06T04:49:20.869Z,99.99
2022-12-06T04:50:21.343Z,99.99
2022-12-06T04:51:21.702Z,99.99
2022-12-06T04:52:22.599Z,99.99
2022-12-06T04:53:23.383Z,99.99
2022-12-06T04:54:23.582Z,99.99
2022-12-06T04:55:23.777Z,99.99
2022-12-06T04:56:24.253Z,99.99
2022-12-06T04:57:24.538Z,99.99
2022-12-06T04:58:25.172Z,99.99
2022-12-06T04:59:25.783Z,99.99
2022-12-06T05:00:26.993Z,99.99
2022-12-06T05:01:27.750Z,99.99
2022-12-06T05:02:28.655Z,99.99
2022-12-06T05:03:28.995Z,99.99
2022-12-06T05:04:29.609Z,99.99
2022-12-06T05:05:30.101Z,99.99
2022-12-06T05:06:30.432Z,99.99
2022-12-06T05:07:30.687Z,99.99
2022-12-06T05:08:31.533Z,99.99
2022-12-06T05:09:32.025Z,99.99
2022-12-06T05:10:32.317Z,99.99
2022-12-06T05:11:33.228Z,99.99
2022-12-06T05:12:33.176Z,99.99
2022-12-06T05:13:34.384Z,99.99
2022-12-06T05:14:34.997Z,99.99
2022-12-06T05:15:35.884Z,99.99
2022-12-06T05:16:36.697Z,99.99
2022-12-06T05:17:37.381Z,99.99
2022-12-06T05:18:37.697Z,99.99
2022-12-06T05:19:38.609Z,99.99
2022-12-06T05:20:38.502Z,99.99
2022-12-06T05:21:39.431Z,99.99
2022-12-06T05:22:39.606Z,99.99
2022-12-06T05:23:40.105Z,99.99
2022-12-06T05:24:40.373Z,99.99
2022-12-06T05:25:40.585Z,99.99
2022-12-06T05:26:40.775Z,99.99
2022-12-06T05:27:41.861Z,99.99
2022-12-06T05:28:41.593Z,99.99
2022-12-06T05:29:42.204Z,99.99
2022-12-06T05:30:43.117Z,99.99
2022-12-06T05:31:43.866Z,99.99
2022-12-06T05:32:44.186Z,99.99
2022-12-06T05:33:44.984Z,99.99
2022-12-06T05:34:45.467Z,99.99
2022-12-06T05:35:46.076Z,99.99
2022-12-06T05:36:47.133Z,99.99
2022-12-06T05:37:47.724Z,99.99
2022-12-06T05:38:52.594Z,99.99
2022-12-06T05:39:47.939Z,99.99
2022-12-06T05:40:48.685Z,99.99
2022-12-06T05:41:49.883Z,99.99
2022-12-06T05:42:50.500Z,99.99
2022-12-06T05:43:50.982Z,99.99
2022-12-06T05:44:51.880Z,99.99
2022-12-06T05:45:52.933Z,99.99
2022-12-06T05:46:53.582Z,99.99
2022-12-06T05:47:54.280Z,99.99
2022-12-06T05:48:54.796Z,99.99
2022-12-06T05:49:54.709Z,99.99
2022-12-06T05:50:54.998Z,99.99
2022-12-06T05:51:59.972Z,99.99
2022-12-06T05:52:56.047Z,99.99
2022-12-06T05:53:56.543Z,99.99
2022-12-06T05:54:56.464Z,99.99
2022-12-06T05:55:57.390Z,99.99
2022-12-06T05:56:57.581Z,99.99
2022-12-06T05:57:58.355Z,99.99
2022-12-06T05:58:58.835Z,99.99
2022-12-06T05:59:59.290Z,99.99
2022-12-06T06:00:59.814Z,99.99
2022-12-06T06:02:00.422Z,99.99
2022-12-06T06:03:00.997Z,99.99
2022-12-06T06:04:01.794Z,99.99
2022-12-06T06:05:01.995Z,99.99
2022-12-06T06:06:02.180Z,99.99
2022-12-06T06:07:03.120Z,99.99
2022-12-06T06:08:03.335Z,99.99
2022-12-06T06:09:03.505Z,99.99
2022-12-06T06:10:04.833Z,99.99
2022-12-06T06:11:05.472Z,99.99
2022-12-06T06:12:10.994Z,99.99
2022-12-06T06:13:06.420Z,99.99
2022-12-06T06:14:07.331Z,99.99
2022-12-06T06:15:08.247Z,99.99
2022-12-06T06:16:08.928Z,99.99
2022-12-06T06:17:09.812Z,99.99
2022-12-06T06:18:10.536Z,99.99
2022-12-06T06:19:10.762Z,99.99
2022-12-06T06:20:11.969Z,99.99
2022-12-06T06:21:12.852Z,99.99
2022-12-06T06:22:13.082Z,99.99
2022-12-06T06:23:13.961Z,99.99
2022-12-06T06:24:14.194Z,99.99
2022-12-06T06:25:14.413Z,99.99
2022-12-06T06:26:15.307Z,99.99
2022-12-06T06:27:15.494Z,99.99
2022-12-06T06:28:15.752Z,99.99
2022-12-06T06:29:16.762Z,99.99
2022-12-06T06:30:17.664Z,99.99
2022-12-06T06:31:18.890Z,99.99
2022-12-06T06:32:18.821Z,99.99
2022-12-06T06:33:19.451Z,99.99
2022-12-06T06:34:20.373Z,99.99
2022-12-06T06:35:21.352Z,99.99
2022-12-06T06:36:21.960Z,99.99
2022-12-06T06:37:22.889Z,99.99
2022-12-06T06:38:23.904Z,99.99
2022-12-06T06:39:24.109Z,99.99
2022-12-06T06:40:24.611Z,99.99
2022-12-06T06:41:25.242Z,99.99
2022-12-06T06:42:25.859Z,99.99
2022-12-06T06:43:26.774Z,99.99
2022-12-06T06:44:26.977Z,99.99
2022-12-06T06:45:33.946Z,99.99
2022-12-06T06:46:28.008Z,99.99
2022-12-06T06:47:28.432Z,99.99
2022-12-06T06:48:29.118Z,99.99
2022-12-06T06:49:29.635Z,99.99
2022-12-06T06:50:30.538Z,99.99
2022-12-06T06:51:31.476Z,99.99
2022-12-06T06:52:31.711Z,99.99
2022-12-06T06:53:31.898Z,99.99
2022-12-06T06:54:32.442Z,99.99
2022-12-06T06:55:32.722Z,99.99
2022-12-06T06:56:33.334Z,99.99
2022-12-06T06:57:34.553Z,99.99
2022-12-06T06:58:35.170Z,99.99
2022-12-06T06:59:35.782Z,99.99
2022-12-06T07:00:36.760Z,99.99
2022-12-06T07:01:37.849Z,99.99
2022-12-06T07:02:38.453Z,99.99
2022-12-06T07:03:39.600Z,99.99
2022-12-06T07:04:40.676Z,99.99
2022-12-06T07:05:40.892Z,99.99
2022-12-06T07:06:41.231Z,99.99
2022-12-06T07:07:41.946Z,99.99
2022-12-06T07:08:42.372Z,99.99
2022-12-06T07:09:43.009Z,99.99
2022-12-06T07:10:43.239Z,99.99
2022-12-06T07:11:44.220Z,99.99
2022-12-06T07:12:44.971Z,99.99
2022-12-06T07:13:51.164Z,99.99
2022-12-06T07:14:46.957Z,99.99
2022-12-06T07:15:46.891Z,99.99
2022-12-06T07:16:47.918Z,99.99
2022-12-06T07:17:47.883Z,99.99
2022-12-06T07:18:48.608Z,99.99
2022-12-06T07:19:49.306Z,99.99
2022-12-06T07:20:49.906Z,99.99
2022-12-06T07:21:50.822Z,99.99
2022-12-06T07:22:51.343Z,99.99
2022-12-06T07:23:52.250Z,99.99
2022-12-06T07:24:57.855Z,99.99
2022-12-06T07:25:53.361Z,99.99
2022-12-06T07:26:53.850Z,99.99
2022-12-06T07:27:54.186Z,99.99
2022-12-06T07:28:55.167Z,99.99
2022-12-06T07:29:56.243Z,99.99
2022-12-06T07:30:56.226Z,99.99
2022-12-06T07:31:56.558Z,99.99
2022-12-06T07:32:57.469Z,99.99
2022-12-06T07:33:58.407Z,99.99
2022-12-06T07:34:58.654Z,99.99
2022-12-06T07:36:28.981Z,99.99
2022-12-06T07:36:59.598Z,99.99
2022-12-06T07:37:59.821Z,99.99
2022-12-06T07:39:00.409Z,99.99
2022-12-06T07:40:01.335Z,99.99
2022-12-06T07:41:10.246Z,99.99
2022-12-06T07:42:01.727Z,99.99
2022-12-06T07:43:02.050Z,99.99
2022-12-06T07:44:02.673Z,99.99
2022-12-06T07:45:07.417Z,99.99
2022-12-06T07:46:03.501Z,99.99
2022-12-06T07:47:03.995Z,99.99
2022-12-06T07:48:04.321Z,99.99
2022-12-06T07:49:04.588Z,99.99
2022-12-06T07:50:05.282Z,99.99
2022-12-06T07:51:05.557Z,99.99
2022-12-06T07:52:06.181Z,99.99
2022-12-06T07:53:06.546Z,99.99
2022-12-06T07:54:06.741Z,99.99
2022-12-06T07:55:07.685Z,99.99
2022-12-06T07:56:08.197Z,99.99
2022-12-06T07:57:08.420Z,99.99
2022-12-06T07:58:08.341Z,99.99
2022-12-06T07:59:08.636Z,99.99
2022-12-06T08:00:09.986Z,99.99
2022-12-06T08:01:10.333Z,99.99
2022-12-06T08:02:11.187Z,99.99
2022-12-06T08:03:11.412Z,99.99
2022-12-06T08:04:12.447Z,99.99
2022-12-06T08:05:12.314Z,99.99
2022-12-06T08:06:13.230Z,99.99
2022-12-06T08:07:13.849Z,99.99
2022-12-06T08:08:14.227Z,99.99
2022-12-06T08:09:15.332Z,99.99
2022-12-06T08:10:15.967Z,99.99
2022-12-06T08:11:16.223Z,99.99
2022-12-06T08:12:17.156Z,99.99
2022-12-06T08:13:17.752Z,99.99
2022-12-06T08:14:18.284Z,99.99
2022-12-06T08:15:18.521Z,99.99
2022-12-06T08:16:19.552Z,99.99
2022-12-06T08:17:19.836Z,99.99
2022-12-06T08:18:19.752Z,99.99
2022-12-06T08:19:20.135Z,99.99
2022-12-06T08:20:21.180Z,99.99
2022-12-06T08:21:21.187Z,99.99
2022-12-06T08:22:22.402Z,99.99
2022-12-06T08:23:24.293Z,99.99
2022-12-06T08:24:24.082Z,99.99
2022-12-06T08:25:25.313Z,99.99
2022-12-06T08:26:25.959Z,99.99
2022-12-06T08:27:26.187Z,99.99
2022-12-06T08:28:26.815Z,99.99
2022-12-06T08:29:27.015Z,99.99
2022-12-06T08:30:27.905Z,99.99
2022-12-06T08:31:28.570Z,99.99
2022-12-06T08:32:28.775Z,99.99
2022-12-06T08:33:29.986Z,99.99
2022-12-06T08:34:30.184Z,99.99
2022-12-06T08:35:30.716Z,99.99
2022-12-06T08:36:31.425Z,99.99
2022-12-06T08:37:32.621Z,99.99
2022-12-06T08:38:32.543Z,99.99
2022-12-06T08:39:33.147Z,99.99
2022-12-06T08:40:33.535Z,99.99
2022-12-06T08:41:33.756Z,99.99
2022-12-06T08:42:34.249Z,99.99
2022-12-06T08:43:34.884Z,99.99
2022-12-06T08:44:35.540Z,99.99
2022-12-06T08:45:36.740Z,99.99
2022-12-06T08:46:37.100Z,99.99
2022-12-06T08:47:37.355Z,99.99
2022-12-06T08:48:42.717Z,99.99
2022-12-06T08:49:38.288Z,99.99
2022-12-06T08:50:38.212Z,99.99
2022-12-06T08:51:39.411Z,99.99
2022-12-06T08:52:40.355Z,99.99
2022-12-06T08:53:40.595Z,99.99
2022-12-06T08:54:40.784Z,99.99
2022-12-06T08:55:41.005Z,99.99
2022-12-06T08:56:42.080Z,99.99
2022-12-06T08:57:42.599Z,99.99
2022-12-06T08:58:42.950Z,99.99
2022-12-06T08:59:43.532Z,99.99
2022-12-06T09:00:44.476Z,99.99
2022-12-06T09:01:44.469Z,99.99
2022-12-06T09:02:45.382Z,99.99
2022-12-06T09:03:46.305Z,99.99
2022-12-06T09:04:46.670Z,99.99
2022-12-06T09:05:47.210Z,99.99
2022-12-06T09:06:47.125Z,99.99
2022-12-06T09:07:48.118Z,99.99
2022-12-06T09:08:48.803Z,99.99
2022-12-06T09:09:49.090Z,99.99
2022-12-06T09:10:49.553Z,99.99
2022-12-06T09:11:50.498Z,98.97
2022-12-06T09:12:51.417Z,97.74
2022-12-06T09:13:51.335Z,97.26
2022-12-06T09:14:52.527Z,96.74
2022-12-06T09:15:52.962Z,96.17
2022-12-06T09:16:53.876Z,96.36
2022-12-06T09:17:54.218Z,95.7
2022-12-06T09:18:54.710Z,94.13
2022-12-06T09:19:56.857Z,91.85
2022-12-06T09:20:55.404Z,91.19
2022-12-06T09:21:55.904Z,91.47
2022-12-06T09:22:56.139Z,90.05
2022-12-06T09:23:56.400Z,89
2022-12-06T09:24:56.775Z,88.57
2022-12-06T09:25:57.822Z,87.9
2022-12-06T09:26:58.154Z,87.62
2022-12-06T09:27:58.406Z,87.62
2022-12-06T09:28:59.091Z,88.38
2022-12-06T09:29:59.654Z,89.52
2022-12-06T09:31:00.171Z,90.37
2022-12-06T09:32:01.222Z,90
2022-12-06T09:33:01.160Z,88.85
2022-12-06T09:34:02.357Z,87.47
2022-12-06T09:35:03.306Z,86.8
2022-12-06T09:36:03.845Z,86.8
2022-12-06T09:37:04.343Z,86.71
2022-12-06T09:38:04.540Z,86.43
2022-12-06T09:39:05.307Z,84.28
2022-12-06T09:40:06.333Z,84
2022-12-06T09:41:06.555Z,83.42
2022-12-06T09:42:06.820Z,83.14
2022-12-06T09:43:06.762Z,83.04
2022-12-06T09:44:08.150Z,83.71
2022-12-06T09:45:08.372Z,83.14
2022-12-06T09:46:08.796Z,82.86
2022-12-06T09:47:08.963Z,83.09
2022-12-06T09:48:10.209Z,82.8
2022-12-06T09:49:10.678Z,81.66
2022-12-06T09:50:11.004Z,80.71
2022-12-06T09:51:11.272Z,79.47
2022-12-06T09:52:11.938Z,79.38
2022-12-06T09:53:12.905Z,79.94
2022-12-06T09:54:13.283Z,79.94
2022-12-06T09:55:14.663Z,79.94
2022-12-06T09:56:14.900Z,79.28
2022-12-06T09:57:15.142Z,80
2022-12-06T09:58:15.419Z,81.24
2022-12-06T09:59:15.787Z,81.43
2022-12-06T10:00:22.510Z,82.15
2022-12-06T10:01:16.977Z,83.48
2022-12-06T10:02:18.389Z,84.43
2022-12-06T10:03:18.893Z,85.53
2022-12-06T10:04:19.497Z,87.14
2022-12-06T10:05:20.206Z,88.28
2022-12-06T10:06:21.143Z,89.14
2022-12-06T10:07:21.372Z,89.38
2022-12-06T10:08:21.765Z,89.47
2022-12-06T10:09:22.661Z,90.71
2022-12-06T10:10:23.372Z,91.47
2022-12-06T10:11:23.625Z,92.13
2022-12-06T10:12:23.893Z,92.56
2022-12-06T10:13:24.809Z,93.6
2022-12-06T10:14:25.098Z,93.32
2022-12-06T10:15:25.290Z,94.46
2022-12-06T10:16:26.123Z,94.93
2022-12-06T10:17:26.559Z,95.41
2022-12-06T10:18:27.748Z,95.7
2022-12-06T10:19:27.799Z,95.7
2022-12-06T10:20:29.094Z,97.07
2022-12-06T10:21:29.748Z,98.11
2022-12-06T10:22:30.690Z,97.26
2022-12-06T10:23:31.351Z,96.69
2022-12-06T10:24:31.666Z,97.36
2022-12-06T10:25:31.551Z,98.59
2022-12-06T10:26:32.786Z,99.16
2022-12-06T10:27:33.297Z,99.35
2022-12-06T10:28:33.232Z,99.82
2022-12-06T10:29:35.181Z,99.54
2022-12-06T10:30:35.190Z,99.54
2022-12-06T10:31:36.055Z,99.26
2022-12-06T10:32:36.497Z,99.73
2022-12-06T10:33:37.415Z,99.54
2022-12-06T10:34:37.907Z,99.35
2022-12-06T10:35:38.067Z,99.35
2022-12-06T10:36:38.576Z,98.59
2022-12-06T10:37:38.582Z,99.73
2022-12-06T10:38:39.528Z,99.99
2022-12-06T10:39:40.472Z,99.99
2022-12-06T10:40:41.284Z,99.99
2022-12-06T10:41:42.245Z,99.99
2022-12-06T10:42:42.915Z,99.99
2022-12-06T10:43:43.106Z,99.99
2022-12-06T10:44:44.294Z,99.99
2022-12-06T10:45:44.776Z,99.99
2022-12-06T10:46:44.878Z,99.99
2022-12-06T10:47:45.327Z,99.99
2022-12-06T10:48:45.944Z,99.99
2022-12-06T10:49:46.563Z,99.99
2022-12-06T10:50:47.731Z,99.99
2022-12-06T10:51:47.962Z,99.99
2022-12-06T10:52:48.888Z,99.99
2022-12-06T10:53:49.776Z,99.99
2022-12-06T10:54:50.509Z,99.99
2022-12-06T10:55:51.420Z,99.99
2022-12-06T10:56:51.660Z,99.99
2022-12-06T10:57:52.605Z,99.99
2022-12-06T10:58:52.533Z,99.99
2022-12-06T10:59:53.891Z,99.99
2022-12-06T11:00:54.566Z,99.99
2022-12-06T11:01:55.448Z,99.99
2022-12-06T11:02:55.923Z,99.99
2022-12-06T11:03:56.841Z,99.99
2022-12-06T11:04:57.334Z,99.99
2022-12-06T11:05:57.955Z,99.99
2022-12-06T11:07:00.138Z,99.99
2022-12-06T11:07:59.221Z,99.99
2022-12-06T11:09:00.086Z,99.99
2022-12-06T11:10:00.672Z,99.99
2022-12-06T11:11:00.716Z,99.99
2022-12-06T11:12:01.942Z,99.99
2022-12-06T11:13:02.162Z,99.99
2022-12-06T11:14:03.105Z,99.99
2022-12-06T11:15:03.734Z,99.99
2022-12-06T11:16:05.141Z,99.99
2022-12-06T11:17:05.336Z,99.99
2022-12-06T11:18:08.314Z,99.99
2022-12-06T11:19:07.232Z,99.99
2022-12-06T11:20:08.291Z,99.99
2022-12-06T11:21:08.693Z,99.99
2022-12-06T11:22:09.008Z,99.99
2022-12-06T11:23:10.218Z,99.99
2022-12-06T11:24:10.825Z,99.99
2022-12-06T11:25:12.053Z,99.99
2022-12-06T11:26:12.945Z,99.99
2022-12-06T11:27:13.523Z,99.99
2022-12-06T11:28:14.518Z,99.99
2022-12-06T11:29:15.444Z,99.99
2022-12-06T11:30:19.728Z,99.99
2022-12-06T11:31:16.332Z,99.99
2022-12-06T11:32:16.622Z,99.99
2022-12-06T11:33:16.815Z,99.99
2022-12-06T11:34:17.449Z,99.99
2022-12-06T11:35:17.657Z,99.99
2022-12-06T11:36:18.287Z,99.99
2022-12-06T11:37:19.566Z,99.99
2022-12-06T11:38:20.252Z,99.99
2022-12-06T11:39:20.716Z,99.99
2022-12-06T11:40:21.225Z,99.99
2022-12-06T11:41:21.540Z,99.99
2022-12-06T11:42:21.873Z,99.99
2022-12-06T11:43:22.186Z,99.99
2022-12-06T11:44:22.459Z,99.99
2022-12-06T11:45:22.979Z,99.99
2022-12-06T11:46:23.617Z,99.99
2022-12-06T11:47:24.104Z,99.99
2022-12-06T11:48:24.724Z,99.99
2022-12-06T11:49:25.449Z,99.99
2022-12-06T11:50:26.449Z,99.99
2022-12-06T11:51:26.927Z,99.99
2022-12-06T11:52:27.439Z,99.99
2022-12-06T11:53:27.653Z,99.99
2022-12-06T11:54:28.572Z,99.99
2022-12-06T11:55:29.221Z,99.99
2022-12-06T11:56:29.407Z,99.99
2022-12-06T11:57:30.340Z,99.99
2022-12-06T11:58:30.581Z,99.99
2022-12-06T11:59:30.792Z,99.99
2022-12-06T12:00:32.150Z,99.99
2022-12-06T12:01:32.755Z,99.99
2022-12-06T12:02:33.248Z,99.99
2022-12-06T12:03:34.380Z,99.99
2022-12-06T12:04:35.173Z,99.99
2022-12-06T12:05:35.667Z,99.99
2022-12-06T12:06:35.981Z,99.99
2022-12-06T12:07:37.383Z,99.99
2022-12-06T12:08:38.494Z,99.99
2022-12-06T12:09:38.703Z,99.99
2022-12-06T12:10:39.394Z,99.99
2022-12-06T12:11:39.677Z,99.99
2022-12-06T12:12:39.919Z,99.99
2022-12-06T12:13:39.856Z,99.99
2022-12-06T12:14:40.714Z,99.99
2022-12-06T12:15:40.925Z,99.99
2022-12-06T12:16:41.295Z,99.99
2022-12-06T12:17:41.799Z,99.99
2022-12-06T12:18:41.998Z,99.99
2022-12-06T12:19:42.194Z,99.99
2022-12-06T12:20:43.402Z,99.99
2022-12-06T12:21:44.134Z,99.99
2022-12-06T12:22:44.861Z,99.99
2022-12-06T12:23:45.371Z,99.99
2022-12-06T12:25:19.154Z,99.99
2022-12-06T12:25:46.201Z,99.99
2022-12-06T12:26:47.413Z,99.99
2022-12-06T12:27:47.936Z,99.99
2022-12-06T12:28:48.884Z,99.99
2022-12-06T12:29:49.391Z,99.99
2022-12-06T12:30:49.595Z,99.99
2022-12-06T12:31:50.613Z,99.99
2022-12-06T12:32:50.486Z,99.99
2022-12-06T12:33:51.694Z,99.99
2022-12-06T12:34:52.615Z,99.99
2022-12-06T12:35:52.939Z,99.99
2022-12-06T12:36:53.852Z,99.99
2022-12-06T12:37:54.074Z,99.99
2022-12-06T12:38:54.308Z,99.99
2022-12-06T12:39:55.221Z,99.99
2022-12-06T12:40:55.753Z,99.99
2022-12-06T12:41:56.775Z,99.99
2022-12-06T12:42:57.698Z,99.99
2022-12-06T12:44:41.090Z,99.99
2022-12-06T12:44:58.626Z,99.99
2022-12-06T12:46:05.074Z,99.99
2022-12-06T12:46:59.872Z,99.99
2022-12-06T12:48:00.795Z,99.99
2022-12-06T12:49:01.406Z,99.99
2022-12-06T12:50:01.602Z,99.99
2022-12-06T12:51:01.799Z,99.99
2022-12-06T12:52:03.226Z,99.99
2022-12-06T12:53:04.116Z,99.99
2022-12-06T12:54:04.599Z,99.99
2022-12-06T12:55:05.797Z,99.99
2022-12-06T12:56:06.380Z,99.99
2022-12-06T12:57:07.004Z,99.99
2022-12-06T12:58:08.441Z,99.99
2022-12-06T12:59:08.354Z,99.99
2022-12-06T13:00:08.272Z,99.99
2022-12-06T13:01:09.775Z,99.99